Weather observations for the past three days for
Gilmer County Airport
Imperial (Metric)
Date Time (edt) Wind (mph) Vis. (mi.) Weather Sky Cond. Temperature (ºF) Relative Humidity Wind Chill (°F) Heat Index (°F) Pressure Precipitation (in)
Air Dwpt 6 hour altimeter (in) sea level (mb) 1 hr 3 hr 6 hr
Max. Min.
10 15:55 Vrbl 3 G 12 10.00 Fair CLR 78.8 64.4 61% 81 30.05 0.0
10 15:35 Vrbl 6 10.00 A Few Clouds FEW055 FEW070 77 62.6 61% 79 30.05 0.0
10 15:15 Calm 10.00 Partly Cloudy FEW042 SCT055 SCT065 77 62.6 61% 79 30.05 0.0
10 14:55 Vrbl 5 10.00 A Few Clouds FEW042 FEW050 77 60.8 57% 79 30.05 0.0
10 14:35 Vrbl 5 10.00 Partly Cloudy FEW044 SCT050 77 62.6 61% 79 30.06 0.0
10 14:15 S 8 10.00 Fair CLR 77 60.8 57% 79 30.06 0.0
10 13:55 W 5 10.00 Fair CLR 77 62.6 61% 79 30.07 0.0
10 13:35 Vrbl 3 10.00 Fair CLR 73.4 60.8 65% 30.07 0.0
10 13:15 Calm 10.00 Fair CLR 73.4 57.2 57% 30.07 0.0
10 12:55 SW 6 10.00 A Few Clouds FEW046 75.2 60.8 61% 77 30.07 0.0
10 12:35 Vrbl 3 1.50 Light Rain Haze BKN041 BKN047 75.2 62.6 65% 77 30.08 0.0
10 12:15 Calm 10.00 Partly Cloudy SCT042 SCT048 75.2 59 57% 78 30.08 0.0
10 11:35 E 3 10.00 Fair CLR 73.4 60.8 65% 30.08 0.0
10 11:15 Calm 10.00 Fair CLR 71.6 60.8 69% 30.08 0.0
10 10:55 Calm 10.00 Fair CLR 71.6 64.4 78% 30.07 0.0
10 10:35 Calm 10.00 Fair CLR 69.8 64.4 83% 30.08 0.0
10 10:15 Vrbl 3 10.00 Fair CLR 68 62.6 83% 30.07 0.0
10 09:55 E 5 10.00 Fair CLR 66.2 66.2 100% 30.08 0.0
10 09:35 NE 3 10.00 Fair CLR 62.6 62.6 100% 30.07 0.0
10 09:15 Calm 10.00 Fair CLR 60.8 60.8 100% 30.06 0.0
10 08:55 Vrbl 3 9.00 A Few Clouds FEW002 59 59 100% 30.07 0.0
10 08:35 N 6 0.75 Light Drizzle Fog/Mist OVC002 57.2 57.2 100% 30.06 0.0
10 08:15 N 5 0.15 Heavy Drizzle Fog OVC002 57.2 57.2 100% 30.06 0.0
10 07:55 N 3 0.15 Fog OVC002 57.2 57.2 100% 30.05 0.0
10 07:35 Calm 0.15 Fog OVC002 57.2 57.2 100% 30.04 0.0
10 07:15 Calm 0.15 Fog OVC002 55.4 55.4 100% 30.03 0.0
10 06:55 Calm 0.15 Fog OVC002 57.2 57.2 100% 30.03 0.0
10 06:35 Vrbl 5 0.15 Light Rain Fog OVC002 57.2 57.2 100% 30.02 0.0
10 06:15 Calm 0.15 Fog OVC001 57.2 57.2 100% 30.01 0.0
10 05:55 Vrbl 3 0.15 Fog OVC001 57.2 57.2 100% 30.01 0.0
10 05:35 Calm 0.15 Fog OVC002 57.2 57.2 100% 30.01 0.0
10 05:15 Calm 0.15 Light Rain Fog OVC002 57.2 57.2 100% 30 0.0
10 04:55 N 6 0.25 Drizzle Fog OVC002 57.2 57.2 100% 30 0.0
10 04:35 N 3 0.25 Drizzle Fog OVC003 57.2 57.2 100% 29.99 0.0
10 04:15 Calm 0.50 Light Drizzle Fog OVC003 55.4 55.4 100% 29.98 0.0
10 03:55 Calm 0.25 Drizzle Fog OVC003 55.4 55.4 100% 29.98 0.0
10 03:35 Calm 0.75 Light Drizzle Fog/Mist OVC004 55.4 55.4 100% 29.98 0.0
10 03:15 Calm 2.00 Fog/Mist OVC003 55.4 55.4 100% 29.97 0.0
10 02:55 NE 5 0.50 Light Drizzle Fog/Mist OVC003 55.4 55.4 100% 29.97 0.0
10 02:35 Calm 1.00 Fog/Mist OVC003 55.4 55.4 100% 29.98 0.0
10 02:15 Calm 1.00 Light Drizzle Fog/Mist SCT003 BKN023 BKN035 57.2 57.2 100% 29.97 0.0
10 01:55 Calm 1.25 Fog/Mist FEW003 SCT025 BKN030 57.2 57.2 100% 29.98 0.0
10 01:35 Calm 2.00 Fog/Mist FEW029 SCT036 59 59 100% 29.98 0.0
10 01:15 Calm 8.00 Partly Cloudy FEW028 SCT034 SCT045 59 59 100% 29.99 0.0
10 00:55 Calm 6.00 Fog/Mist BKN029 OVC036 59 59 100% 29.99 0.0
10 00:35 Calm 9.00 Overcast OVC034 60.8 60.8 100% 29.99 0.0
10 00:15 Calm 9.00 Overcast OVC034 60.8 60.8 100% 30 0.0
09 23:55 Calm 8.00 Mostly Cloudy BKN034 59 59 100% 30 0.0
09 23:35 Calm 9.00 Partly Cloudy SCT032 59 59 100% 29.98 0.0
09 23:15 Calm 1.75 Fog/Mist CLR 59 59 100% 29.98 0.0
09 22:55 Calm 9.00 Fair CLR 59 59 100% 29.98 0.0
09 22:35 Calm 8.00 Fair CLR 59 59 100% 29.97 0.0
09 22:15 N 5 7.00 Fair CLR 60.8 60.8 100% 29.96 0.0
09 21:55 N 3 9.00 Fair CLR 60.8 60.8 100% 29.95 0.0
09 21:35 Calm 10.00 Fair CLR 60.8 60.8 100% 29.95 0.0
09 21:15 Calm 10.00 Fair CLR 62.6 62.6 100% 29.95 0.0
09 20:55 Calm 10.00 Fair CLR 62.6 62.6 100% 29.94 0.0
09 20:35 Calm 10.00 Fair CLR 64.4 64.4 100% 29.93 0.0
09 20:15 Calm 10.00 Fair CLR 64.4 64.4 100% 29.93 0.0
09 19:55 Calm 10.00 Fair CLR 66.2 64.4 94% 29.92 0.0
09 19:35 Calm 10.00 Fair CLR 68 62.6 83% 29.92 0.0
09 19:15 Calm 10.00 Fair CLR 69.8 62.6 78% 29.91 0.0
09 18:55 Calm 10.00 Fair CLR 68 62.6 83% 29.91 0.0
09 18:35 NW 5 10.00 Fair CLR 69.8 62.6 78% 29.91 0.0
09 18:15 Vrbl 3 10.00 Fair CLR 69.8 62.6 78% 29.91 0.0
09 17:55 Vrbl 5 10.00 Fair CLR 69.8 60.8 73% 29.9 0.0
09 17:35 Vrbl 6 10.00 Fair CLR 69.8 60.8 73% 29.91 0.0
09 17:15 Vrbl 3 10.00 Fair CLR 69.8 60.8 73% 29.9 0.0
09 16:55 Vrbl 5 10.00 Fair CLR 71.6 60.8 69% 29.9 0.0
09 16:35 Vrbl 5 10.00 Fair CLR 69.8 60.8 73% 29.9 0.0
09 16:15 Vrbl 6 10.00 Fair CLR 68 60.8 78% 29.89 0.0
09 15:55 Vrbl 6 10.00 Fair CLR 69.8 62.6 78% 29.9 0.0
09 15:35 SW 5 10.00 Fair CLR 69.8 60.8 73% 29.9 0.0
09 15:15 SW 3 10.00 Fair CLR 69.8 60.8 73% 29.9 0.0
09 14:55 Vrbl 7 10.00 A Few Clouds FEW023 68 60.8 78% 29.91 0.0
09 14:35 Vrbl 5 10.00 Partly Cloudy SCT023 68 60.8 78% 29.91 0.0
09 14:15 Vrbl 6 10.00 Fair CLR 68 60.8 78% 29.92 0.0
09 13:55 Vrbl 5 10.00 Fair CLR 66.2 59 78% 29.92 0.0
09 13:35 Calm 10.00 Fair CLR 66.2 59 78% 29.91 0.0
09 13:15 Calm 10.00 A Few Clouds FEW018 66.2 60.8 83% 29.92 0.0
09 12:55 SW 6 10.00 Mostly Cloudy FEW014 BKN020 BKN026 64.4 60.8 88% 29.93 0.0
09 12:35 Vrbl 5 10.00 Overcast SCT008 BKN020 OVC026 64.4 62.6 94% 29.94 0.0
09 12:15 Vrbl 5 7.00 Light Drizzle OVC008 62.6 62.6 100% 29.94 0.0
09 11:55 Vrbl 7 8.00 Overcast OVC008 60.8 60.8 100% 29.95 0.0
09 11:35 Vrbl 3 10.00 Overcast BKN009 OVC013 60.8 60.8 100% 29.95 0.0
09 11:15 Vrbl 5 10.00 Overcast BKN009 OVC012 60.8 60.8 100% 29.95 0.0
09 10:55 Vrbl 5 10.00 Mostly Cloudy BKN006 BKN012 BKN022 62.6 62.6 100% 29.95 0.0
09 10:35 SW 3 10.00 Mostly Cloudy BKN005 BKN009 BKN026 60.8 60.8 100% 29.94 0.0
09 10:15 Calm 2.00 Light Drizzle Fog/Mist BKN003 59 59 100% 29.93 0.0
09 09:55 Calm 1.00 Light Drizzle Fog/Mist OVC002 59 59 100% 29.92 0.0
09 09:35 Calm 0.75 Light Drizzle Fog/Mist OVC003 59 59 100% 29.92 0.0
09 09:15 Calm 1.50 Light Drizzle Fog/Mist OVC008 59 59 100% 29.92 0.0
09 08:55 Calm 10.00 Overcast OVC008 59 59 100% 29.92 0.0
09 08:35 Calm 10.00 Overcast OVC008 59 59 100% 29.91 0.0
09 08:15 Calm 10.00 Overcast OVC009 57.2 57.2 100% 29.91 0.0
09 07:55 Calm 10.00 Overcast OVC013 57.2 57.2 100% 29.91 0.0
09 07:35 Calm 10.00 Overcast OVC015 55.4 55.4 100% 29.91 0.0
09 07:15 Calm 10.00 Overcast OVC015 55.4 55.4 100% 29.91 0.0
09 06:55 Calm 10.00 Overcast OVC015 53.6 53.6 100% 29.91 0.0
09 06:35 Calm 10.00 Overcast OVC016 53.6 53.6 100% 29.91 0.0
09 06:15 Calm 10.00 Overcast OVC017 53.6 53.6 100% 29.91 0.0
09 05:55 Calm 10.00 Overcast OVC019 53.6 53.6 100% 29.91 0.0
09 05:35 Calm 10.00 Overcast OVC021 53.6 53.6 100% 29.9 0.0
09 05:15 Calm 9.00 Overcast BKN021 BKN027 OVC055 53.6 53.6 100% 29.91 0.0
09 04:55 Calm 10.00 Overcast BKN021 OVC027 53.6 53.6 100% 29.92 0.0
09 04:35 Calm 10.00 Overcast OVC020 51.8 51.8 100% 29.91 0.0
09 04:15 Calm 10.00 Overcast OVC022 53.6 53.6 100% 29.91 0.0
09 03:55 NW 3 9.00 Overcast BKN025 OVC055 53.6 53.6 100% 29.92 0.0
09 03:35 Calm 10.00 Overcast SCT022 OVC027 53.6 53.6 100% 29.91 0.0
09 03:15 Calm 9.00 Overcast OVC021 53.6 53.6 100% 29.91 0.0
09 02:55 Calm 9.00 Overcast OVC023 51.8 51.8 100% 29.91 0.0
09 02:35 Calm 6.00 Fog/Mist BKN021 OVC055 51.8 51.8 100% 29.93 0.0
09 02:15 Calm 8.00 Overcast SCT019 OVC055 50 50 100% 29.93 0.0
09 01:55 Calm 10.00 Overcast OVC060 51.8 51.8 100% 29.95 0.0
09 01:35 Calm 6.00 Fog/Mist BKN055 51.8 51.8 100% 29.95 0.0
09 01:15 Calm 10.00 Mostly Cloudy BKN055 BKN070 51.8 51.8 100% 29.95 0.0
09 00:55 Calm 10.00 A Few Clouds FEW050 FEW075 53.6 53.6 100% 29.94 0.0
09 00:35 Calm 10.00 Fair CLR 55.4 55.4 100% 29.94 0.0
09 00:15 SE 3 10.00 Fair CLR 55.4 55.4 100% 29.96 0.0
08 23:55 Calm 10.00 Fair CLR 55.4 55.4 100% 29.97 0.0
08 23:35 Calm 10.00 Mostly Cloudy BKN031 55.4 55.4 100% 29.97 0.0
08 23:15 Calm 10.00 Overcast OVC034 55.4 55.4 100% 29.97 0.0
08 22:55 Calm 10.00 Overcast OVC037 55.4 55.4 100% 29.98 0.0
08 22:35 Calm 10.00 Overcast OVC040 55.4 55.4 100% 29.98 0.0
08 22:15 Calm 10.00 Overcast OVC040 57.2 57.2 100% 29.98 0.0
08 21:55 SE 5 10.00 Mostly Cloudy BKN040 57.2 57.2 100% 29.97 0.0
08 21:35 Calm 10.00 A Few Clouds FEW039 59 59 100% 29.97 0.0
08 20:55 Calm 9.00 Fair CLR 59 57.2 94% 29.97 0.0
08 20:35 Calm 10.00 Fair CLR 59 57.2 94% 29.96 0.0
08 20:15 Calm 10.00 Fair CLR 60.8 57.2 88% 29.96 0.0
08 19:55 Calm 10.00 Fair CLR 60.8 57.2 88% 29.96 0.0
08 19:35 Calm 10.00 Fair CLR 62.6 55.4 77% 29.96 0.0
08 19:15 Calm 10.00 Fair CLR 62.6 55.4 77% 29.96 0.0
08 18:55 Calm 10.00 Fair CLR 64.4 53.6 68% 29.96 0.0
08 18:35 Vrbl 3 10.00 Fair CLR 64.4 53.6 68% 29.97 0.0
08 18:15 S 6 10.00 Fair CLR 66.2 51.8 60% 29.96 0.0
08 17:55 S 7 10.00 Fair CLR 66.2 51.8 60% 29.96 0.0
08 17:35 Vrbl 5 G 12 10.00 Fair CLR 68 50 53% 29.96 0.0
08 17:15 Vrbl 5 10.00 Fair CLR 68 50 53% 29.96 0.0
08 16:35 S 7 10.00 Fair CLR 69.8 48.2 46% 29.97 0.0
08 15:55 Vrbl 5 10.00 Fair CLR 69.8 48.2 46% 29.97 0.0
08 15:35 S 5 10.00 Fair CLR 69.8 44.6 40% 29.98 0.0
08 15:15 S 7 10.00 Fair CLR 69.8 44.6 40% 30 0.0
08 14:55 Calm 10.00 Fair CLR 69.8 44.6 40% 29.99 0.0
08 14:35 S 8 10.00 Fair CLR 69.8 44.6 40% 30.01 0.0
08 14:15 SW 8 10.00 Fair CLR 69.8 46.4 43% 30.01 0.0
08 13:55 Calm 10.00 Fair CLR 69.8 44.6 40% 30.02 0.0
08 13:35 Vrbl 5 10.00 Fair CLR 69.8 46.4 43% 30.02 0.0
08 13:15 Vrbl 7 10.00 Fair CLR 69.8 44.6 40% 30.03 0.0
08 12:55 SW 9 10.00 Fair CLR 68 42.8 40% 30.04 0.0
08 12:35 SW 5 10.00 Fair CLR 68 44.6 43% 30.05 0.0
08 12:15 SW 9 10.00 Fair CLR 68 44.6 43% 30.06 0.0
08 11:55 Vrbl 7 G 14 10.00 Fair CLR 68 44.6 43% 30.07 0.0
08 11:15 Calm 10.00 Fair CLR 64.4 48.2 56% 30.07 0.0
08 10:55 S 6 10.00 Fair CLR 62.6 48.2 60% 30.08 0.0
08 10:35 SW 6 10.00 Fair CLR 62.6 50 64% 30.08 0.0
08 10:15 Vrbl 5 10.00 Fair CLR 60.8 50 68% 30.08 0.0
08 09:55 Calm 10.00 Fair CLR 59 48.2 68% 30.08 0.0
08 09:35 Calm 10.00 Fair CLR 57.2 50 77% 30.08 0.0
08 09:15 NE 5 10.00 Fair CLR 55.4 51.8 88% 30.08 0.0
08 08:55 NE 6 10.00 Fair CLR 53.6 51.8 94% 30.09 0.0
08 08:35 Vrbl 3 10.00 Fair CLR 51.8 51.8 100% 30.09 0.0
08 08:15 Calm 10.00 Fair CLR 50 50 100% 30.08 0.0
08 07:55 Calm 10.00 Fair CLR 48.2 48.2 100% 30.06 0.0
08 07:35 Calm 10.00 Fair CLR 46.4 46.4 100% 30.05 0.0
08 07:15 Calm 10.00 Fair CLR 44.6 44.6 100% 30.04 0.0
08 06:55 Calm 10.00 Fair CLR 46.4 46.4 100% 30.03 0.0
08 06:35 Calm 9.00 Fair CLR 44.6 44.6 100% 30.02 0.0
08 06:15 N 5 9.00 Fair CLR 44.6 44.6 100% 43 30.01 0.0
08 05:55 N 5 6.00 Fog/Mist CLR 44.6 44.6 100% 43 30.01 0.0
08 05:35 Calm 4.00 Fog/Mist CLR 46.4 46.4 100% 30.01 0.0
08 05:15 Calm 9.00 Fair CLR 46.4 46.4 100% 30 0.0
08 04:55 NE 3 10.00 Fair CLR 46.4 46.4 100% 30 0.0
08 04:35 N 5 10.00 Fair CLR 48.2 48.2 100% 47 30 0.0
08 04:15 N 5 10.00 Fair CLR 48.2 48.2 100% 47 29.99 0.0
08 03:55 N 5 10.00 Fair CLR 48.2 48.2 100% 47 29.99 0.0
08 03:35 Vrbl 5 9.00 Fair CLR 48.2 48.2 100% 47 30 0.0
08 03:15 N 5 9.00 Fair CLR 48.2 48.2 100% 47 30 0.0
08 02:55 N 6 10.00 Fair CLR 48.2 48.2 100% 46 30 0.0
08 02:35 N 6 10.00 Fair CLR 48.2 48.2 100% 46 30.01 0.0
08 02:15 Calm 10.00 Fair CLR 48.2 48.2 100% 30.01 0.0
08 01:55 N 5 8.00 Fair CLR 48.2 48.2 100% 47 30.01 0.0
08 01:35 N 5 1.00 Fog/Mist CLR 48.2 48.2 100% 47 30.01 0.0
08 01:15 Calm 1.00 Fog/Mist CLR 50 50 100% 30.01 0.0
08 00:55 Calm 4.00 Fog/Mist CLR 50 50 100% 30.02 0.0
08 00:35 Calm 3.00 Fog/Mist CLR 50 50 100% 30.01 0.0
08 00:15 NE 5 9.00 Fair CLR 51.8 51.8 100% 30.01 0.0
07 23:55 Calm 2.00 Fog/Mist CLR 51.8 51.8 100% 30 0.0
07 23:35 Calm 2.50 Fog/Mist CLR 51.8 51.8 100% 30 0.0
07 23:15 Calm 5.00 Fog/Mist CLR 53.6 53.6 100% 30 0.0
07 22:55 Calm 9.00 Fair CLR 51.8 51.8 100% 30 0.0
07 22:15 Calm 10.00 Fair CLR 53.6 53.6 100% 29.99 0.0
07 21:55 Calm 10.00 Fair CLR 53.6 53.6 100% 29.99 0.0
07 21:35 Calm 10.00 Fair CLR 55.4 55.4 100% 29.98 0.0
07 21:15 Calm 10.00 Fair CLR 55.4 55.4 100% 29.97 0.0
07 20:55 Calm 10.00 Fair CLR 57.2 57.2 100% 29.97 0.0
07 20:35 Calm 10.00 Fair CLR 57.2 57.2 100% 29.96 0.0
07 20:15 Vrbl 3 10.00 Fair CLR 59 57.2 94% 29.96 0.0
07 19:55 NW 6 10.00 Fair CLR 60.8 55.4 83% 29.95 0.0
07 19:35 Vrbl 5 10.00 Fair CLR 62.6 57.2 83% 29.95 0.0
07 19:15 Vrbl 6 10.00 Fair CLR 62.6 55.4 77% 29.95 0.0
07 18:55 Vrbl 6 10.00 Fair CLR 62.6 55.4 77% 29.95 0.0
07 18:35 Calm 10.00 Partly Cloudy FEW038 SCT044 62.6 55.4 77% 29.94 0.0
07 18:15 Vrbl 6 G 12 10.00 Mostly Cloudy SCT037 BKN044 62.6 55.4 77% 29.94 0.0
07 17:55 Vrbl 6 10.00 Overcast OVC039 64.4 55.4 73% 29.95 0.0
07 17:35 NW 8 G 14 10.00 Mostly Cloudy BKN038 BKN044 62.6 55.4 77% 29.94 0.0
07 17:15 Vrbl 6 G 14 10.00 Mostly Cloudy FEW030 BKN035 BKN041 64.4 57.2 78% 29.93 0.0
07 16:55 Vrbl 6 G 14 10.00 Mostly Cloudy BKN032 BKN038 64.4 57.2 78% 29.93 0.0
07 16:35 NW 8 G 17 10.00 Partly Cloudy SCT029 SCT035 64.4 57.2 78% 29.93 0.0
07 16:15 NW 9 G 18 10.00 Partly Cloudy FEW028 SCT035 66.2 57.2 73% 29.92 0.0
Date Time (edt) Wind (mph) Vis. (mi.) Weather Sky Cond. Air Dwpt Max. Min. Relative Humidity Wind Chill (°F) Heat Index (°F) altimeter (in) sea level (mb) 1 hr 3 hr 6 hr
6 hour
Temperature (ºF) Pressure Precipitation (in)